Time;durP1;ratioP1;P1;durP2;ratioP2;P2;SDS_P1;SDS_P2;PMS_P1;PMS_P2;Temp;Humidity;BMP_temperature;BMP_pressure;BME280_temperature;BME280_humidity;BME280_pressure;Samples;Min_cycle;Max_cycle;Signal;HPM_P1;HPM_P2
2024/03/01 00:03:36;;;;;;;13.55;8.23;;;;;;;;;;12501282;23;20763;-74
2024/03/01 00:08:39;;;;;;;13.18;8.43;;;;;;;;;;12483830;23;20484;-73
2024/03/01 00:13:44;;;;;;;16.20;9.40;;;;;;;;;;12500320;23;20625;-73
2024/03/01 00:18:47;;;;;;;12.93;7.95;;;;;;;;;;12499652;23;20031;-73
2024/03/01 00:23:51;;;;;;;15.13;8.45;;;;;;;;;;12499546;23;20134;-73
2024/03/01 00:28:55;;;;;;;17.65;9.88;;;;;;;;;;12483361;23;20099;-73
2024/03/01 00:33:59;;;;;;;19.23;10.00;;;;;;;;;;12484165;23;20055;-73
2024/03/01 00:39:02;;;;;;;17.88;9.30;;;;;;;;;;12484073;23;20091;-73
2024/03/01 00:44:09;;;;;;;18.45;10.63;;;;;;;;;;12498084;23;20035;-73
2024/03/01 00:49:13;;;;;;;19.30;10.38;;;;;;;;;;12497000;23;20031;-73
2024/03/01 00:54:16;;;;;;;17.33;10.05;;;;;;;;;;12497333;23;20107;-74
2024/03/01 00:59:23;;;;;;;19.30;11.02;;;;;;;;;;12481565;23;20027;-74
2024/03/01 01:04:26;;;;;;;18.88;10.60;;;;;;;;;;12496843;23;20064;-74
2024/03/01 01:09:30;;;;;;;18.98;10.85;;;;;;;;;;12495539;23;20050;-74
2024/03/01 01:14:34;;;;;;;16.92;9.73;;;;;;;;;;12495776;23;20023;-73
2024/03/01 01:19:37;;;;;;;19.17;9.93;;;;;;;;;;12494641;23;20027;-74
2024/03/01 01:24:41;;;;;;;15.40;8.82;;;;;;;;;;12494921;23;20039;-73
2024/03/01 01:29:45;;;;;;;22.70;13.38;;;;;;;;;;12494587;23;20409;-73
2024/03/01 01:34:48;;;;;;;19.13;11.13;;;;;;;;;;12494443;23;20498;-73
2024/03/01 01:39:51;;;;;;;27.33;14.77;;;;;;;;;;12483625;23;20041;-73
2024/03/01 01:44:56;;;;;;;22.50;12.13;;;;;;;;;;12493365;23;20047;-73
2024/03/01 01:49:59;;;;;;;26.33;12.80;;;;;;;;;;12493321;23;20290;-73
2024/03/01 01:55:03;;;;;;;23.30;10.90;;;;;;;;;;12492985;23;20084;-73
2024/03/01 02:00:10;;;;;;;21.30;10.77;;;;;;;;;;12492506;23;20029;-74
2024/03/01 02:05:17;;;;;;;16.75;9.35;;;;;;;;;;12480427;23;20090;-73
2024/03/01 02:10:22;;;;;;;16.73;9.15;;;;;;;;;;12490888;23;20099;-74
2024/03/01 02:15:27;;;;;;;15.40;8.77;;;;;;;;;;12483292;23;20179;-74
2024/03/01 02:20:32;;;;;;;13.68;9.00;;;;;;;;;;12489059;23;20033;-74
2024/03/01 02:25:36;;;;;;;15.15;9.05;;;;;;;;;;12489480;23;20027;-74
2024/03/01 02:30:40;;;;;;;14.10;9.18;;;;;;;;;;12480771;23;20046;-74
2024/03/01 02:35:43;;;;;;;15.93;9.02;;;;;;;;;;12488547;23;20035;-74
2024/03/01 02:40:48;;;;;;;17.63;9.88;;;;;;;;;;12478369;23;20047;-73
2024/03/01 02:45:51;;;;;;;18.25;10.25;;;;;;;;;;12489220;23;20030;-74
2024/03/01 02:50:54;;;;;;;20.30;10.93;;;;;;;;;;12488271;23;20055;-74
2024/03/01 02:55:59;;;;;;;18.35;10.77;;;;;;;;;;12479918;23;20644;-73
2024/03/01 03:01:02;;;;;;;17.83;10.15;;;;;;;;;;12487451;23;20047;-74
2024/03/01 03:06:06;;;;;;;16.38;10.00;;;;;;;;;;12479390;23;20036;-74
2024/03/01 03:11:10;;;;;;;19.23;11.77;;;;;;;;;;12487135;23;20031;-73
2024/03/01 03:16:14;;;;;;;18.52;10.85;;;;;;;;;;12480893;23;20070;-74
2024/03/01 03:21:17;;;;;;;17.17;10.38;;;;;;;;;;12486588;23;20098;-73
2024/03/01 03:26:21;;;;;;;21.45;12.73;;;;;;;;;;12486577;23;20031;-74
2024/03/01 03:31:25;;;;;;;15.95;9.85;;;;;;;;;;12486003;23;20483;-74
2024/03/01 03:36:28;;;;;;;13.68;8.50;;;;;;;;;;12485645;23;20102;-74
2024/03/01 03:41:33;;;;;;;13.55;8.65;;;;;;;;;;12485499;23;20378;-73
2024/03/01 03:46:36;;;;;;;18.27;11.15;;;;;;;;;;12480905;23;20023;-74
2024/03/01 03:51:39;;;;;;;19.58;11.70;;;;;;;;;;12484354;23;20528;-74
2024/03/01 03:56:44;;;;;;;17.80;10.55;;;;;;;;;;12485351;23;20028;-74
2024/03/01 04:01:49;;;;;;;19.20;10.18;;;;;;;;;;12480425;23;20040;-74
2024/03/01 04:06:52;;;;;;;24.92;13.90;;;;;;;;;;12477482;23;20058;-74
2024/03/01 04:11:57;;;;;;;20.70;10.52;;;;;;;;;;12481431;23;20043;-74
2024/03/01 04:17:00;;;;;;;17.13;10.43;;;;;;;;;;12483169;23;20030;-74
2024/03/01 04:22:04;;;;;;;18.48;11.52;;;;;;;;;;12483566;23;20042;-74
2024/03/01 04:27:08;;;;;;;18.02;10.50;;;;;;;;;;12483110;23;20058;-74
2024/03/01 04:32:11;;;;;;;14.23;9.23;;;;;;;;;;12482519;23;20431;-74
2024/03/01 04:37:15;;;;;;;11.15;7.28;;;;;;;;;;12485142;23;20042;-74
2024/03/01 04:42:19;;;;;;;13.32;8.60;;;;;;;;;;12485662;23;20043;-74
2024/03/01 04:47:23;;;;;;;12.93;8.23;;;;;;;;;;12480885;23;20185;-74
2024/03/01 04:52:26;;;;;;;15.30;9.43;;;;;;;;;;12485621;23;20028;-74
2024/03/01 04:57:31;;;;;;;15.05;9.00;;;;;;;;;;12485089;23;20051;-74
2024/03/01 05:02:34;;;;;;;14.25;9.25;;;;;;;;;;12483581;23;20348;-74
2024/03/01 05:07:37;;;;;;;16.35;9.20;;;;;;;;;;12483864;23;20030;-74
2024/03/01 05:12:52;;;;;;;14.07;9.27;;;;;;;;;;12483970;23;20053;-74
2024/03/01 05:17:57;;;;;;;20.33;10.27;;;;;;;;;;12355277;23;20028;-74
2024/03/01 05:23:00;;;;;;;15.70;9.65;;;;;;;;;;12326846;24;20017;-74
2024/03/01 05:28:05;;;;;;;14.27;8.65;;;;;;;;;;12326511;24;20027;-74
2024/03/01 05:33:09;;;;;;;14.10;8.47;;;;;;;;;;12326262;24;20100;-73
2024/03/01 05:38:12;;;;;;;14.45;8.82;;;;;;;;;;12325162;24;20617;-73
2024/03/01 05:43:16;;;;;;;15.23;9.18;;;;;;;;;;12325665;24;20468;-73
2024/03/01 05:48:20;;;;;;;15.80;10.25;;;;;;;;;;12308182;24;20028;-74
2024/03/01 05:53:26;;;;;;;14.50;8.65;;;;;;;;;;12325991;24;20048;-73
2024/03/01 05:58:30;;;;;;;14.77;8.18;;;;;;;;;;12324902;24;20091;-74
2024/03/01 06:03:33;;;;;;;12.80;7.82;;;;;;;;;;12324434;24;20020;-74
2024/03/01 06:08:37;;;;;;;13.88;8.48;;;;;;;;;;12321860;24;20033;-73
2024/03/01 06:13:42;;;;;;;16.38;9.25;;;;;;;;;;12324676;24;20091;-73
2024/03/01 06:18:45;;;;;;;12.35;8.45;;;;;;;;;;12331963;24;20059;-73
2024/03/01 06:23:48;;;;;;;12.85;8.05;;;;;;;;;;12325491;24;20892;-74
2024/03/01 06:28:53;;;;;;;11.85;7.43;;;;;;;;;;12310525;24;20111;-73
2024/03/01 06:33:56;;;;;;;10.93;7.35;;;;;;;;;;12324259;24;20031;-74
2024/03/01 06:38:59;;;;;;;11.95;8.00;;;;;;;;;;12323942;24;20608;-74
2024/03/01 06:44:04;;;;;;;13.35;8.73;;;;;;;;;;12330102;24;20103;-73
2024/03/01 06:49:08;;;;;;;12.13;8.30;;;;;;;;;;12306814;24;20112;-73
2024/03/01 06:54:11;;;;;;;14.15;9.02;;;;;;;;;;12308061;24;20032;-73
2024/03/01 06:59:16;;;;;;;12.05;8.15;;;;;;;;;;12307574;24;20469;-73
2024/03/01 07:04:19;;;;;;;13.30;8.52;;;;;;;;;;12307873;24;20103;-73
2024/03/01 07:09:23;;;;;;;17.42;10.50;;;;;;;;;;12319506;24;20465;-74
2024/03/01 07:14:27;;;;;;;14.38;9.00;;;;;;;;;;12320129;24;20494;-73
2024/03/01 07:19:32;;;;;;;13.77;9.18;;;;;;;;;;12319676;24;20032;-74
2024/03/01 07:24:35;;;;;;;16.98;10.13;;;;;;;;;;12318790;24;20054;-74
2024/03/01 07:29:39;;;;;;;17.45;10.98;;;;;;;;;;12318251;24;20029;-73
2024/03/01 07:34:43;;;;;;;14.57;8.90;;;;;;;;;;12307268;24;20624;-73
2024/03/01 07:39:46;;;;;;;14.48;9.02;;;;;;;;;;12319170;24;20417;-73
2024/03/01 07:44:51;;;;;;;12.32;7.72;;;;;;;;;;12308604;24;20136;-73
2024/03/01 07:49:54;;;;;;;14.70;9.73;;;;;;;;;;12319203;24;20036;-73
2024/03/01 07:54:57;;;;;;;16.67;10.55;;;;;;;;;;12319076;24;20104;-73
2024/03/01 08:00:03;;;;;;;10.48;6.93;;;;;;;;;;12318836;24;20035;-73
2024/03/01 08:05:09;;;;;;;13.32;8.95;;;;;;;;;;12318312;24;20537;-74
2024/03/01 08:10:15;;;;;;;18.98;11.70;;;;;;;;;;12331051;23;20032;-73
2024/03/01 08:15:28;;;;;;;14.57;9.73;;;;;;;;;;12321741;24;20028;-73
2024/03/01 08:20:56;;;;;;;13.25;8.20;;;;;;;;;;12320463;24;20141;-73
2024/03/01 08:25:59;;;;;;;12.23;7.53;;;;;;;;;;12318610;24;20427;-73
2024/03/01 08:31:04;;;;;;;13.35;7.93;;;;;;;;;;12317739;24;20096;-73
2024/03/01 08:36:09;;;;;;;11.70;7.35;;;;;;;;;;12318253;24;20028;-73
2024/03/01 08:41:13;;;;;;;10.40;6.63;;;;;;;;;;12318007;24;20031;-73
2024/03/01 08:46:28;;;;;;;13.27;8.25;;;;;;;;;;12312115;24;20108;-74
2024/03/01 08:51:31;;;;;;;12.05;8.00;;;;;;;;;;12315389;24;20052;-73
2024/03/01 08:56:36;;;;;;;9.80;6.63;;;;;;;;;;12315929;24;20892;-74
2024/03/01 09:01:47;;;;;;;9.05;6.13;;;;;;;;;;12314505;24;20508;-73
2024/03/01 09:07:00;;;;;;;7.53;5.05;;;;;;;;;;12311087;24;20024;-74
2024/03/01 09:12:03;;;;;;;6.65;4.45;;;;;;;;;;12312600;24;20067;-74
2024/03/01 09:17:13;;;;;;;5.40;3.83;;;;;;;;;;12308502;24;20112;-74
2024/03/01 09:22:17;;;;;;;6.68;4.65;;;;;;;;;;12309470;24;20032;-74
2024/03/01 09:27:28;;;;;;;7.60;5.25;;;;;;;;;;12311205;24;20541;-74
2024/03/01 09:32:34;;;;;;;6.60;4.53;;;;;;;;;;12311099;24;20100;-74
2024/03/01 09:37:37;;;;;;;8.50;6.00;;;;;;;;;;12330848;24;20075;-74
2024/03/01 09:42:47;;;;;;;8.18;6.10;;;;;;;;;;12308558;24;20055;-74
2024/03/01 09:48:09;;;;;;;10.30;6.78;;;;;;;;;;12309067;24;20564;-74
2024/03/01 09:53:22;;;;;;;7.82;5.20;;;;;;;;;;12327468;24;20024;-74
2024/03/01 09:58:33;;;;;;;8.20;4.90;;;;;;;;;;12326065;24;20035;-74
2024/03/01 10:03:42;;;;;;;5.95;4.10;;;;;;;;;;12308170;24;20035;-74
2024/03/01 10:08:54;;;;;;;7.18;4.82;;;;;;;;;;12324108;24;20115;-74
2024/03/01 10:14:05;;;;;;;6.25;4.47;;;;;;;;;;12323811;24;20237;-74
2024/03/01 10:19:18;;;;;;;7.60;5.18;;;;;;;;;;12322278;24;20099;-74
2024/03/01 10:24:31;;;;;;;5.90;3.85;;;;;;;;;;12309033;24;20055;-73
2024/03/01 10:29:55;;;;;;;4.97;3.42;;;;;;;;;;12308951;24;20416;-74
2024/03/01 10:35:10;;;;;;;5.05;4.25;;;;;;;;;;12319056;24;20100;-74
2024/03/01 10:40:17;;;;;;;8.00;5.97;;;;;;;;;;12316636;24;20112;-74
2024/03/01 10:45:25;;;;;;;4.78;3.60;;;;;;;;;;12329706;24;20097;-74
2024/03/01 10:50:32;;;;;;;3.00;2.40;;;;;;;;;;12329440;24;20059;-74
2024/03/01 10:55:38;;;;;;;2.88;2.10;;;;;;;;;;12317465;24;20032;-74
2024/03/01 11:00:46;;;;;;;5.88;1.73;;;;;;;;;;12316452;24;20420;-74
2024/03/01 11:06:08;;;;;;;1.25;1.10;;;;;;;;;;12316291;24;20124;-75
2024/03/01 11:11:17;;;;;;;1.35;0.98;;;;;;;;;;12314726;24;20034;-74
2024/03/01 11:16:24;;;;;;;0.85;0.80;;;;;;;;;;12313398;24;20096;-73
2024/03/01 11:21:33;;;;;;;0.98;0.88;;;;;;;;;;12313003;24;20029;-74
2024/03/01 11:26:44;;;;;;;1.60;0.80;;;;;;;;;;12313073;24;20104;-74
2024/03/01 11:31:52;;;;;;;0.98;0.55;;;;;;;;;;12314003;24;20068;-74
2024/03/01 11:37:14;;;;;;;0.95;0.80;;;;;;;;;;12311136;24;20033;-74
2024/03/01 11:42:27;;;;;;;3.60;0.63;;;;;;;;;;12310112;24;20625;-73
2024/03/01 11:47:44;;;;;;;0.50;0.50;;;;;;;;;;12311824;24;20035;-74
2024/03/01 11:52:58;;;;;;;0.60;0.60;;;;;;;;;;12311589;24;20131;-74
2024/03/01 11:58:14;;;;;;;0.57;0.47;;;;;;;;;;12330260;24;20021;-74
2024/03/01 12:03:49;;;;;;;0.45;0.45;;;;;;;;;;12328205;24;20025;-73
2024/03/01 12:09:02;;;;;;;0.60;0.30;;;;;;;;;;12309847;24;20107;-74
2024/03/01 12:14:11;;;;;;;0.55;0.50;;;;;;;;;;12324462;24;20103;-73
2024/03/01 12:19:26;;;;;;;0.50;0.50;;;;;;;;;;12324973;24;20053;-73
2024/03/01 12:24:34;;;;;;;1.00;0.50;;;;;;;;;;12323757;24;20107;-74
2024/03/01 12:29:50;;;;;;;0.30;0.30;;;;;;;;;;12311873;24;20104;-74
2024/03/01 12:35:09;;;;;;;0.40;0.40;;;;;;;;;;12322345;24;20132;-74
2024/03/01 12:40:17;;;;;;;0.50;0.30;;;;;;;;;;12320301;24;20050;-74
2024/03/01 12:45:34;;;;;;;0.40;0.40;;;;;;;;;;12319867;24;20032;-74
2024/03/01 12:50:48;;;;;;;0.70;0.50;;;;;;;;;;12318686;24;20033;-73
2024/03/01 12:56:04;;;;;;;1.67;0.50;;;;;;;;;;12318055;24;20111;-74
2024/03/01 13:01:14;;;;;;;;;;;;;;;;;;12317232;24;20126;-74
2024/03/01 13:06:20;;;;;;;0.30;0.30;;;;;;;;;;12332597;24;19923;-73
2024/03/01 13:11:26;;;;;;;0.50;0.50;;;;;;;;;;12314824;24;20033;-74
2024/03/01 13:16:29;;;;;;;;;;;;;;;;;;12331679;24;20043;-74
2024/03/01 13:21:43;;;;;;;0.30;0.30;;;;;;;;;;12313998;24;20550;-74
2024/03/01 13:27:01;;;;;;;0.38;0.38;;;;;;;;;;12314198;24;20579;-74
2024/03/01 13:32:11;;;;;;;0.68;0.50;;;;;;;;;;12312319;24;20107;-74
2024/03/01 13:37:19;;;;;;;0.60;0.50;;;;;;;;;;12311410;24;20092;-74
2024/03/01 13:42:32;;;;;;;0.70;0.70;;;;;;;;;;12311150;24;20112;-74
2024/03/01 13:47:38;;;;;;;0.52;0.52;;;;;;;;;;12310217;24;20085;-74
2024/03/01 13:52:42;;;;;;;0.88;0.80;;;;;;;;;;12309732;24;20033;-74
2024/03/01 13:57:48;;;;;;;1.55;1.20;;;;;;;;;;12308887;24;20103;-74
2024/03/01 14:02:52;;;;;;;1.58;1.48;;;;;;;;;;12328032;24;20337;-74
2024/03/01 14:07:57;;;;;;;1.50;1.10;;;;;;;;;;12326714;24;20023;-73
2024/03/01 14:13:02;;;;;;;2.40;1.43;;;;;;;;;;12325741;24;20457;-74
2024/03/01 14:18:05;;;;;;;1.33;1.00;;;;;;;;;;12326537;24;20028;-73
2024/03/01 14:23:12;;;;;;;2.10;1.38;;;;;;;;;;12306865;24;20025;-73
2024/03/01 14:28:17;;;;;;;1.48;1.20;;;;;;;;;;12325130;24;20723;-73
2024/03/01 14:33:21;;;;;;;1.30;1.00;;;;;;;;;;12325804;24;20059;-74
2024/03/01 14:38:26;;;;;;;1.00;0.70;;;;;;;;;;12325049;24;20052;-74
2024/03/01 14:43:43;;;;;;;0.73;0.65;;;;;;;;;;12324086;24;20028;-74
2024/03/01 14:48:49;;;;;;;1.50;0.90;;;;;;;;;;12323321;24;20425;-74
2024/03/01 14:53:52;;;;;;;0.93;0.82;;;;;;;;;;12323460;24;20024;-74
2024/03/01 14:58:57;;;;;;;1.13;0.60;;;;;;;;;;12322874;24;20028;-74
2024/03/01 15:04:01;;;;;;;3.08;1.73;;;;;;;;;;12322643;24;20406;-74
2024/03/01 15:09:05;;;;;;;2.78;1.30;;;;;;;;;;12308432;24;20128;-74
2024/03/01 15:14:11;;;;;;;1.70;0.98;;;;;;;;;;12321873;24;20100;-74
2024/03/01 15:19:16;;;;;;;0.80;0.70;;;;;;;;;;12321296;24;20376;-73
2024/03/01 15:24:20;;;;;;;1.85;0.70;;;;;;;;;;12321481;24;20065;-73
2024/03/01 15:29:24;;;;;;;1.15;0.80;;;;;;;;;;12320503;24;20399;-73
2024/03/01 15:34:28;;;;;;;0.98;0.80;;;;;;;;;;12329318;24;20035;-73
2024/03/01 15:39:31;;;;;;;0.88;0.63;;;;;;;;;;12307405;24;20056;-73
2024/03/01 15:44:36;;;;;;;1.20;0.68;;;;;;;;;;12308349;24;20750;-73
2024/03/01 15:49:40;;;;;;;1.10;0.60;;;;;;;;;;12306337;24;20103;-73
2024/03/01 15:54:43;;;;;;;1.08;0.63;;;;;;;;;;12328860;24;20028;-73
2024/03/01 15:59:48;;;;;;;0.80;0.70;;;;;;;;;;12319249;24;20515;-73
2024/03/01 16:04:52;;;;;;;1.35;1.05;;;;;;;;;;12318576;24;20119;-74
2024/03/01 16:09:55;;;;;;;0.90;0.63;;;;;;;;;;12318421;24;20052;-73
2024/03/01 16:15:01;;;;;;;2.45;0.80;;;;;;;;;;12317943;24;20029;-74
2024/03/01 16:20:07;;;;;;;;;;;;;;;;;;12318441;24;20055;-73
2024/03/01 16:25:12;;;;;;;;;;;;;;;;;;12317851;24;19998;-73
2024/03/01 16:30:27;;;;;;;0.50;0.50;;;;;;;;;;12318625;24;19926;-73
2024/03/01 16:35:59;;;;;;;0.68;0.40;;;;;;;;;;12320152;24;20033;-74
2024/03/01 16:41:04;;;;;;;0.95;0.60;;;;;;;;;;12317528;24;20643;-74
2024/03/01 16:46:16;;;;;;;3.67;1.60;;;;;;;;;;12332425;24;20040;-73
2024/03/01 16:51:36;;;;;;;2.20;1.17;;;;;;;;;;12332186;23;20640;-73
2024/03/01 16:56:39;;;;;;;1.52;0.98;;;;;;;;;;12310967;24;20067;-73
2024/03/01 17:01:45;;;;;;;0.98;0.60;;;;;;;;;;12311105;24;20045;-74
2024/03/01 17:06:49;;;;;;;0.77;0.60;;;;;;;;;;12313209;24;20492;-73
2024/03/01 17:11:55;;;;;;;0.90;0.70;;;;;;;;;;12313733;24;20067;-74
2024/03/01 17:16:59;;;;;;;1.42;0.88;;;;;;;;;;12388407;23;20396;-73
2024/03/01 17:22:03;;;;;;;1.05;0.60;;;;;;;;;;12487656;23;20114;-73
2024/03/01 17:27:07;;;;;;;0.60;0.60;;;;;;;;;;12487088;23;20047;-73
2024/03/01 17:32:11;;;;;;;1.05;0.82;;;;;;;;;;12486886;23;20043;-74
2024/03/01 17:37:14;;;;;;;1.42;1.25;;;;;;;;;;12486369;23;20093;-73
2024/03/01 17:42:18;;;;;;;1.85;1.25;;;;;;;;;;12486212;23;20023;-73
2024/03/01 17:47:25;;;;;;;1.33;1.08;;;;;;;;;;12486157;23;20025;-73
2024/03/01 17:52:28;;;;;;;1.75;1.00;;;;;;;;;;12479242;23;20069;-73
2024/03/01 17:57:31;;;;;;;1.27;0.90;;;;;;;;;;12481174;23;20027;-73
2024/03/01 18:02:36;;;;;;;1.75;0.93;;;;;;;;;;12482876;23;20098;-73
2024/03/01 18:07:40;;;;;;;2.15;0.95;;;;;;;;;;12482092;23;20084;-73
2024/03/01 18:12:43;;;;;;;1.10;1.00;;;;;;;;;;12457525;23;20026;-73
2024/03/01 18:17:48;;;;;;;0.77;0.70;;;;;;;;;;12479714;23;20308;-73
2024/03/01 18:22:51;;;;;;;0.73;0.70;;;;;;;;;;12501460;23;20015;-74
2024/03/01 18:27:54;;;;;;;0.77;0.60;;;;;;;;;;12501084;23;20059;-73
2024/03/01 18:32:59;;;;;;;0.88;0.75;;;;;;;;;;12500452;23;20568;-73
2024/03/01 18:38:03;;;;;;;0.85;0.82;;;;;;;;;;12479953;23;20029;-73
2024/03/01 18:43:06;;;;;;;1.52;0.80;;;;;;;;;;12500022;23;20190;-73
2024/03/01 18:48:11;;;;;;;0.70;0.70;;;;;;;;;;12499087;23;20027;-73
2024/03/01 18:53:15;;;;;;;3.03;1.63;;;;;;;;;;12498442;23;20035;-73
2024/03/01 18:58:18;;;;;;;2.35;1.38;;;;;;;;;;12498499;23;20102;-73
2024/03/01 19:03:23;;;;;;;2.42;1.52;;;;;;;;;;12498686;23;20364;-73
2024/03/01 19:08:26;;;;;;;2.17;1.50;;;;;;;;;;12479415;23;20504;-74
2024/03/01 19:13:30;;;;;;;1.80;1.23;;;;;;;;;;12498061;23;20098;-73
2024/03/01 19:18:35;;;;;;;1.20;0.90;;;;;;;;;;12479086;23;20102;-73
2024/03/01 19:23:38;;;;;;;1.17;1.00;;;;;;;;;;12481541;23;20523;-73
2024/03/01 19:28:42;;;;;;;1.60;1.00;;;;;;;;;;12496710;23;20023;-74
2024/03/01 19:33:46;;;;;;;1.63;1.08;;;;;;;;;;12496661;23;20073;-73
2024/03/01 19:38:50;;;;;;;1.35;1.00;;;;;;;;;;12480917;23;20079;-73
2024/03/01 19:43:53;;;;;;;2.40;1.60;;;;;;;;;;12495845;23;20031;-73
2024/03/01 19:48:57;;;;;;;1.25;1.00;;;;;;;;;;12496301;23;20102;-73
2024/03/01 19:54:01;;;;;;;1.50;1.15;;;;;;;;;;12478835;23;20115;-74
2024/03/01 19:59:04;;;;;;;1.75;1.23;;;;;;;;;;12494943;23;20031;-73
2024/03/01 20:04:08;;;;;;;2.22;1.55;;;;;;;;;;12496628;23;20058;-73
2024/03/01 20:09:12;;;;;;;1.45;1.23;;;;;;;;;;12498277;23;20031;-73
2024/03/01 20:14:17;;;;;;;1.73;1.20;;;;;;;;;;12497862;23;20028;-73
2024/03/01 20:19:22;;;;;;;1.20;1.10;;;;;;;;;;12497422;23;20049;-73
2024/03/01 20:24:25;;;;;;;1.25;1.00;;;;;;;;;;12482811;23;20675;-73
2024/03/01 20:29:29;;;;;;;1.58;0.95;;;;;;;;;;12496149;23;20523;-73
2024/03/01 20:34:33;;;;;;;1.20;1.10;;;;;;;;;;12495508;23;20110;-73
2024/03/01 20:39:37;;;;;;;1.80;1.48;;;;;;;;;;12497616;23;20051;-73
2024/03/01 20:44:44;;;;;;;1.70;1.33;;;;;;;;;;12485499;23;20030;-73
2024/03/01 20:49:49;;;;;;;2.38;1.48;;;;;;;;;;12482236;23;20474;-73
2024/03/01 20:54:52;;;;;;;1.77;1.40;;;;;;;;;;12494889;23;20349;-74
2024/03/01 20:59:55;;;;;;;2.30;1.67;;;;;;;;;;12495761;23;20090;-73
2024/03/01 21:05:00;;;;;;;2.25;1.67;;;;;;;;;;12495906;23;20471;-73
2024/03/01 21:10:05;;;;;;;2.72;1.88;;;;;;;;;;12483727;23;20337;-73
2024/03/01 21:15:10;;;;;;;1.95;1.75;;;;;;;;;;12495524;23;20468;-74
2024/03/01 21:20:14;;;;;;;3.25;2.00;;;;;;;;;;12494884;23;20054;-73
2024/03/01 21:25:18;;;;;;;2.22;1.77;;;;;;;;;;12483975;23;20106;-73
2024/03/01 21:30:21;;;;;;;2.33;1.90;;;;;;;;;;12493354;23;20490;-73
2024/03/01 21:35:26;;;;;;;1.95;1.75;;;;;;;;;;12493805;23;20490;-73
2024/03/01 21:40:29;;;;;;;2.92;2.30;;;;;;;;;;12492279;23;20419;-73
2024/03/01 21:45:32;;;;;;;4.05;2.70;;;;;;;;;;12493497;23;20138;-73
2024/03/01 21:50:37;;;;;;;4.15;3.10;;;;;;;;;;12492596;23;20027;-73
2024/03/01 21:55:40;;;;;;;4.50;3.38;;;;;;;;;;12492653;23;20055;-73
2024/03/01 22:00:44;;;;;;;4.53;3.13;;;;;;;;;;12492202;23;20416;-73
2024/03/01 22:05:49;;;;;;;4.32;3.00;;;;;;;;;;12484312;23;20130;-73
2024/03/01 22:10:52;;;;;;;3.90;2.30;;;;;;;;;;12491029;23;20031;-73
2024/03/01 22:15:56;;;;;;;3.90;2.83;;;;;;;;;;12484140;23;20447;-73
2024/03/01 22:21:00;;;;;;;3.88;2.80;;;;;;;;;;12488703;23;20024;-73
2024/03/01 22:26:05;;;;;;;2.92;2.42;;;;;;;;;;12484052;23;20035;-73
2024/03/01 22:31:10;;;;;;;2.63;2.08;;;;;;;;;;12489525;23;20250;-73
2024/03/01 22:36:15;;;;;;;2.95;2.30;;;;;;;;;;12489541;23;20105;-73
2024/03/01 22:41:19;;;;;;;3.53;2.47;;;;;;;;;;12489205;23;20536;-73
2024/03/01 22:46:23;;;;;;;2.22;2.00;;;;;;;;;;12489537;23;20264;-73
2024/03/01 22:51:28;;;;;;;2.65;2.00;;;;;;;;;;12488383;23;20285;-73
2024/03/01 22:56:33;;;;;;;3.20;2.25;;;;;;;;;;12486006;23;20050;-73
2024/03/01 23:01:38;;;;;;;2.67;1.83;;;;;;;;;;12481740;23;20058;-73
2024/03/01 23:06:43;;;;;;;2.72;1.73;;;;;;;;;;12483498;23;20027;-73
2024/03/01 23:11:47;;;;;;;2.55;1.65;;;;;;;;;;12479147;23;20019;-73
2024/03/01 23:16:50;;;;;;;1.90;1.50;;;;;;;;;;12483297;23;20106;-74
2024/03/01 23:21:56;;;;;;;1.98;1.58;;;;;;;;;;12481876;23;20038;-74
2024/03/01 23:26:59;;;;;;;1.88;1.30;;;;;;;;;;12479627;23;20023;-74
2024/03/01 23:32:05;;;;;;;1.45;1.10;;;;;;;;;;12481822;23;20034;-74
2024/03/01 23:37:10;;;;;;;1.25;1.08;;;;;;;;;;12479452;23;20598;-74
2024/03/01 23:42:14;;;;;;;1.05;0.95;;;;;;;;;;12487345;23;20026;-74
2024/03/01 23:47:17;;;;;;;1.15;1.05;;;;;;;;;;12487446;23;20452;-74
2024/03/01 23:52:22;;;;;;;1.55;1.20;;;;;;;;;;12487911;23;20079;-74
2024/03/01 23:57:25;;;;;;;1.60;1.30;;;;;;;;;;12486133;23;20031;-74
